»·PEaware :: N188DD KRNM-KSMO

N188DD :: KRNM-KSMO

FLIGHT INFORMATION

Flight Status: Arrived
Operator: Privately registered:
United States
More flights under this callsign
Pilot: Craig S. (31220)
Aircraft: SOCATA TBM-900
(TBM9)
More flights by this aircraft type
Origin: KRNM Ramona
United States
Destination: KSMO Santa Monica Mun
United States
More flights between these airports :: More routes between these airports
Route: ROBNN V208 SLI148 SLI V459 DARTS
File this flight plan on PilotEdge
Remarks: ODP & TEC SANP11
Altitude:
(Current/Filed)
6,000ft
Speed:
(Current/Filed)
200kts
Departed: 21-Oct-20 04:33 PM
Arrived: 21-Oct-20 05:11 PM
Distance/Time
Traveled:
97nm/0:38
Distance/Time
To Go:
Arrived

Flight Plot

Page will automatically refresh every two minutes.


Map Options




Map Legend


Flown Route
Filed Route
Departure Airport
Arrival Airport
Navaid (VOR, NDB)
Fix

Horizontal Profiles

Position Reports

Time Latitude Longitude Heading Altitude Ground
Speed
21-Oct-20 15:47 33.039818 -116.911354 113 1393ft 0kts
21-Oct-20 15:48 33.039818 -116.911354 113 1393ft 0kts
21-Oct-20 15:49 33.039818 -116.911354 113 1393ft 0kts
21-Oct-20 15:51 33.039818 -116.911354 113 1393ft 0kts
21-Oct-20 15:52 33.039818 -116.911354 113 1393ft 0kts
21-Oct-20 15:53 33.039818 -116.911354 113 1393ft 0kts
21-Oct-20 15:54 33.039818 -116.911354 113 1393ft 0kts
21-Oct-20 15:55 33.039818 -116.911354 113 1393ft 0kts
21-Oct-20 15:56 33.039818 -116.911354 113 1393ft 0kts
21-Oct-20 15:57 33.039818 -116.911354 113 1393ft 0kts
21-Oct-20 15:58 33.039818 -116.911354 113 1393ft 0kts
21-Oct-20 15:59 33.039818 -116.911354 113 1393ft 0kts
21-Oct-20 16:00 33.039818 -116.911354 113 1393ft 0kts
21-Oct-20 16:01 33.039818 -116.911354 113 1393ft 0kts
21-Oct-20 16:02 33.039818 -116.911354 113 1393ft 0kts
21-Oct-20 16:03 33.039818 -116.911354 113 1393ft 0kts
21-Oct-20 16:04 33.039818 -116.911354 113 1393ft 0kts
21-Oct-20 16:05 33.039818 -116.911354 113 1393ft 0kts
21-Oct-20 16:06 33.039818 -116.911354 113 1393ft 0kts
21-Oct-20 16:07 33.039818 -116.911354 113 1393ft 0kts
21-Oct-20 16:08 33.039818 -116.911354 113 1393ft 0kts
21-Oct-20 16:09 33.039818 -116.911354 113 1393ft 0kts
21-Oct-20 16:09 33.039818 -116.911354 113 1393ft 0kts
21-Oct-20 16:11 33.039818 -116.911354 113 1393ft 0kts
21-Oct-20 16:11 33.039818 -116.911354 113 1393ft 0kts
21-Oct-20 16:13 33.039818 -116.911354 113 1393ft 0kts
21-Oct-20 16:13 33.039818 -116.911354 113 1393ft 0kts
21-Oct-20 16:14 33.039818 -116.911354 113 1393ft 0kts
21-Oct-20 16:15 33.039818 -116.911354 113 1393ft 0kts
21-Oct-20 16:16 33.039818 -116.911354 113 1393ft 0kts
21-Oct-20 16:17 33.039818 -116.911354 113 1393ft 0kts
21-Oct-20 16:18 33.039818 -116.911354 113 1393ft 0kts
21-Oct-20 16:19 33.039818 -116.911354 113 1394ft 0kts
21-Oct-20 16:20 33.039818 -116.911354 113 1394ft 0kts
21-Oct-20 16:21 33.039818 -116.911354 113 1394ft 0kts
21-Oct-20 16:22 33.039818 -116.911354 113 1394ft 0kts
21-Oct-20 16:23 33.039818 -116.911354 113 1394ft 0kts
21-Oct-20 16:24 33.039818 -116.911354 113 1394ft 0kts
21-Oct-20 16:25 33.039818 -116.911354 113 1394ft 0kts
21-Oct-20 16:26 33.039818 -116.911354 113 1394ft 0kts
21-Oct-20 16:27 33.039818 -116.911354 113 1394ft 0kts
21-Oct-20 16:28 33.039782 -116.911258 114 1393ft 3kts
21-Oct-20 16:29 33.039156 -116.910444 103 1392ft 14kts
21-Oct-20 16:30 33.038483 -116.907216 174 1388ft 0kts
21-Oct-20 16:31 33.038041 -116.907729 281 1387ft 0kts
21-Oct-20 16:32 33.039467 -116.917840 276 1604ft 106kts
21-Oct-20 16:33 33.054939 -116.948913 322 3765ft 133kts
21-Oct-20 16:34 33.086758 -116.981825 289 5662ft 161kts
21-Oct-20 16:35 33.097284 -117.034436 279 7694ft 166kts
21-Oct-20 16:36 33.136006 -117.076784 327 7996ft 223kts
21-Oct-20 16:37 33.173749 -117.128601 286 7985ft 214kts
21-Oct-20 16:38 33.192494 -117.196395 286 7979ft 215kts
21-Oct-20 16:39 33.210471 -117.264623 283 7978ft 215kts
21-Oct-20 16:40 33.226265 -117.333635 283 7975ft 215kts
21-Oct-20 16:41 33.242142 -117.402678 283 7980ft 215kts
21-Oct-20 16:42 33.253208 -117.472107 267 7983ft 212kts
21-Oct-20 16:43 33.255943 -117.542667 273 7981ft 213kts
21-Oct-20 16:44 33.263284 -117.613011 277 7980ft 213kts
21-Oct-20 16:45 33.273172 -117.682978 277 7979ft 213kts
21-Oct-20 16:46 33.320066 -117.724657 332 8005ft 221kts
21-Oct-20 16:47 33.375857 -117.756341 332 8003ft 222kts
21-Oct-20 16:48 33.429522 -117.792489 326 8002ft 222kts
21-Oct-20 16:49 33.482374 -117.830956 325 8000ft 222kts
21-Oct-20 16:50 33.534168 -117.871606 324 8000ft 222kts
21-Oct-20 16:51 33.586229 -117.912003 326 8000ft 222kts
21-Oct-20 16:52 33.639148 -117.950458 326 8000ft 222kts
21-Oct-20 16:53 33.692297 -117.988876 326 8000ft 222kts
21-Oct-20 16:54 33.745262 -118.027201 326 8000ft 222kts
21-Oct-20 16:55 33.798737 -118.063626 332 7999ft 221kts
21-Oct-20 16:56 33.853971 -118.095331 332 7995ft 219kts
21-Oct-20 16:57 33.908686 -118.126795 332 7994ft 217kts
21-Oct-20 16:58 33.963045 -118.158089 332 7996ft 216kts
21-Oct-20 16:59 34.020622 -118.180679 351 7563ft 237kts
21-Oct-20 17:00 34.089757 -118.190666 351 6103ft 258kts
21-Oct-20 17:01 34.159860 -118.205036 324 4960ft 246kts
21-Oct-20 17:02 34.208704 -118.248914 314 4955ft 184kts
21-Oct-20 17:03 34.189788 -118.276334 173 4974ft 138kts
21-Oct-20 17:04 34.151866 -118.277503 232 4344ft 159kts
21-Oct-20 17:05 34.124820 -118.322004 223 3421ft 171kts
21-Oct-20 17:06 34.091742 -118.361319 223 2443ft 144kts
21-Oct-20 17:07 34.067809 -118.389713 223 1751ft 114kts
21-Oct-20 17:08 34.045945 -118.415643 223 1084ft 95kts
21-Oct-20 17:09 34.028507 -118.436538 222 519ft 84kts
21-Oct-20 17:10 34.014811 -118.453044 315 134ft 9kts
21-Oct-20 17:11 34.014962 -118.453236 313 134ft 0kts
21-Oct-20 17:12 34.014377 -118.454154 214 132ft 5kts
21-Oct-20 17:13 34.013680 -118.455314 149 128ft 5kts
21-Oct-20 17:14 34.013651 -118.455289 143 128ft 0kts
21-Oct-20 17:15 34.013651 -118.455289 143 128ft 0kts
21-Oct-20 17:16 34.013751 -118.455333 163 128ft 1kts

Navigation Log

Ident Type
Flight plan parsing failed, navigation log unavailable